Time;durP1;ratioP1;P1;durP2;ratioP2;P2;SDS_P1;SDS_P2;PMS_P1;PMS_P2;Temp;Humidity;BMP_temperature;BMP_pressure;BME280_temperature;BME280_humidity;BME280_pressure;Samples;Min_cycle;Max_cycle;Signal;HPM_P1;HPM_P2
2022/09/11 00:01:26;;;;;;;76.77;37.10;;;16.50;99.90;;;;;;5074094;28;20573;-48
2022/09/11 00:03:55;;;;;;;67.77;36.27;;;16.50;99.90;;;;;;5073993;28;20969;-54
2022/09/11 00:06:25;;;;;;;59.83;34.20;;;16.50;99.90;;;;;;5074134;28;20508;-47
2022/09/11 00:08:53;;;;;;;66.17;33.73;;;16.40;99.90;;;;;;5073956;28;20919;-53
2022/09/11 00:11:21;;;;;;;72.70;33.53;;;16.40;99.90;;;;;;5074136;28;20466;-51
2022/09/11 00:13:50;;;;;;;63.73;33.40;;;16.40;99.90;;;;;;5074348;28;20457;-52
2022/09/11 00:16:22;;;;;;;68.10;34.23;;;16.40;99.90;;;;;;5074094;28;20443;-46
2022/09/11 00:18:50;;;;;;;65.33;29.47;;;16.40;99.90;;;;;;5074411;28;20927;-53
2022/09/11 00:21:20;;;;;;;48.93;25.00;;;16.40;99.90;;;;;;5077543;28;20465;-51
2022/09/11 00:23:49;;;;;;;43.43;21.70;;;16.40;99.90;;;;;;5077560;28;20981;-48
2022/09/11 00:26:16;;;;;;;32.07;19.33;;;16.40;99.90;;;;;;5077705;28;20470;-53
2022/09/11 00:28:44;;;;;;;35.70;20.03;;;16.40;99.90;;;;;;5077412;28;20470;-46
2022/09/11 00:31:13;;;;;;;32.53;17.57;;;16.40;99.90;;;;;;5077781;28;20578;-56
2022/09/11 00:33:40;;;;;;;28.80;17.63;;;16.30;99.90;;;;;;5077444;28;20489;-45
2022/09/11 00:36:11;;;;;;;29.13;16.17;;;16.40;99.90;;;;;;5077686;28;20496;-50
2022/09/11 00:38:38;;;;;;;25.93;14.83;;;16.30;99.90;;;;;;5077672;28;20442;-51
2022/09/11 00:41:13;;;;;;;24.27;12.33;;;16.30;99.90;;;;;;5077546;28;20457;-49
2022/09/11 00:43:54;;;;;;;27.30;12.40;;;16.30;99.90;;;;;;5077415;28;20438;-47
2022/09/11 00:46:21;;;;;;;32.83;16.50;;;16.30;99.90;;;;;;5077483;28;20485;-47
2022/09/11 00:48:49;;;;;;;34.67;16.27;;;16.30;99.90;;;;;;5077243;28;20478;-52
2022/09/11 00:51:20;;;;;;;37.40;20.57;;;16.30;99.90;;;;;;5077115;28;20473;-48
2022/09/11 00:53:59;;;;;;;37.10;22.17;;;16.30;99.90;;;;;;5077165;28;20915;-48
2022/09/11 00:56:30;;;;;;;43.90;24.40;;;16.40;99.90;;;;;;5077267;28;20462;-51
2022/09/11 00:58:58;;;;;;;74.53;25.97;;;16.40;99.90;;;;;;5077100;28;20442;-48
2022/09/11 01:01:24;;;;;;;64.63;27.97;;;16.30;99.90;;;;;;5077212;28;20463;-50
2022/09/11 01:03:51;;;;;;;68.80;33.40;;;16.40;99.90;;;;;;5076926;28;20447;-53
2022/09/11 01:06:19;;;;;;;67.60;31.80;;;16.30;99.90;;;;;;5077044;28;20482;-48
2022/09/11 01:08:46;;;;;;;67.13;34.60;;;16.40;99.90;;;;;;5077047;28;20446;-53
2022/09/11 01:11:24;;;;;;;56.67;28.07;;;16.40;99.90;;;;;;5077166;28;20450;-52
2022/09/11 01:14:07;;;;;;;47.37;28.13;;;16.40;99.90;;;;;;5076688;28;20466;-53
2022/09/11 01:16:40;;;;;;;59.20;27.70;;;16.40;99.90;;;;;;5077024;28;20752;-47
2022/09/11 01:19:20;;;;;;;53.63;25.90;;;16.50;99.90;;;;;;5076869;28;20473;-48
2022/09/11 01:22:00;;;;;;;40.00;23.37;;;16.50;99.90;;;;;;5076513;28;20461;-48
2022/09/11 01:25:00;;;;;;;40.03;23.47;;;16.50;99.90;;;;;;5076775;28;20553;-52
2022/09/11 01:27:44;;;;;;;49.00;22.53;;;16.50;99.90;;;;;;5076597;28;20502;-48
2022/09/11 01:30:13;;;;;;;34.60;20.10;;;16.50;99.90;;;;;;5076077;28;20462;-50
2022/09/11 01:33:02;;;;;;;33.80;20.03;;;16.50;99.90;;;;;;5075810;28;20450;-51
2022/09/11 01:35:39;;;;;;;31.77;18.83;;;16.50;99.90;;;;;;5076122;28;20481;-45
2022/09/11 01:38:13;;;;;;;36.77;19.80;;;16.50;99.90;;;;;;5076335;28;20525;-53
2022/09/11 01:40:47;;;;;;;30.63;19.87;;;16.50;99.90;;;;;;5076444;28;20474;-48
2022/09/11 01:43:21;;;;;;;35.37;21.40;;;16.50;99.90;;;;;;5076481;28;20470;-54
2022/09/11 01:45:50;;;;;;;29.20;19.47;;;16.50;99.90;;;;;;5076062;28;20470;-51
2022/09/11 01:48:21;;;;;;;38.07;19.33;;;16.40;99.90;;;;;;5076197;28;20474;-51
2022/09/11 01:50:51;;;;;;;27.17;17.80;;;16.40;99.90;;;;;;5076024;28;20458;-48
2022/09/11 01:53:22;;;;;;;30.27;18.47;;;16.40;99.90;;;;;;5076315;28;20883;-49
2022/09/11 01:56:02;;;;;;;27.50;18.27;;;16.40;99.90;;;;;;5076141;28;20431;-48
2022/09/11 01:58:31;;;;;;;25.47;16.70;;;16.40;99.90;;;;;;5076099;28;20723;-54
2022/09/11 02:01:05;;;;;;;20.73;16.07;;;16.30;99.90;;;;;;5075994;28;20927;-50
2022/09/11 02:03:36;;;;;;;20.30;14.63;;;16.30;99.90;;;;;;5075865;28;20470;-53
2022/09/11 02:06:07;;;;;;;19.83;10.87;;;16.30;99.90;;;;;;5076016;28;20433;-50
2022/09/11 02:08:41;;;;;;;14.30;10.33;;;16.30;99.90;;;;;;5075556;28;20462;-48
2022/09/11 02:11:10;;;;;;;15.03;9.10;;;16.30;99.90;;;;;;5075922;28;20739;-51
2022/09/11 02:13:46;;;;;;;12.53;8.30;;;16.30;99.90;;;;;;5075686;28;20467;-48
2022/09/11 02:16:20;;;;;;;15.17;8.00;;;16.30;99.90;;;;;;5075756;28;20442;-49
2022/09/11 02:18:56;;;;;;;11.00;8.20;;;16.20;99.90;;;;;;5075385;28;20489;-46
2022/09/11 02:21:23;;;;;;;8.53;6.57;;;16.20;99.90;;;;;;5075590;28;20847;-48
2022/09/11 02:23:50;;;;;;;11.47;6.63;;;16.20;99.90;;;;;;5075382;28;20911;-47
2022/09/11 02:26:20;;;;;;;8.47;6.40;;;16.20;99.90;;;;;;5075422;28;20447;-54
2022/09/11 02:28:58;;;;;;;6.60;4.90;;;16.10;99.90;;;;;;5075798;28;20442;-51
2022/09/11 02:31:26;;;;;;;6.93;5.63;;;16.10;99.90;;;;;;5075125;28;20462;-48
2022/09/11 02:33:53;;;;;;;7.53;5.80;;;16.00;99.90;;;;;;5075502;28;20446;-47
2022/09/11 02:36:43;;;;;;;6.97;5.33;;;16.00;99.90;;;;;;5075292;28;20470;-50
2022/09/11 02:39:34;;;;;;;7.63;5.50;;;16.00;99.90;;;;;;5075027;28;20435;-47
2022/09/11 02:42:16;;;;;;;9.07;6.00;;;15.90;99.90;;;;;;5075095;28;20474;-50
2022/09/11 02:44:51;;;;;;;6.73;5.73;;;15.90;99.90;;;;;;5075128;28;20731;-50
2022/09/11 02:47:29;;;;;;;7.00;5.93;;;15.80;99.90;;;;;;5075077;28;20548;-51
2022/09/11 02:50:04;;;;;;;6.60;5.57;;;15.80;99.90;;;;;;5075258;28;20525;-54
2022/09/11 02:52:46;;;;;;;12.17;6.10;;;15.80;99.90;;;;;;5074994;28;20477;-50
2022/09/11 02:55:19;;;;;;;6.57;4.80;;;15.80;99.90;;;;;;5074878;28;20426;-54
2022/09/11 02:57:54;;;;;;;9.10;5.90;;;15.70;99.90;;;;;;5074722;28;20435;-52
2022/09/11 03:00:39;;;;;;;9.60;5.97;;;15.70;99.90;;;;;;5074969;28;20453;-46
2022/09/11 03:03:06;;;;;;;11.73;5.80;;;15.70;99.90;;;;;;5074786;28;20525;-49
2022/09/11 03:05:36;;;;;;;8.13;6.37;;;15.70;99.90;;;;;;5074665;28;20880;-45
2022/09/11 03:08:03;;;;;;;10.10;5.83;;;15.70;99.90;;;;;;5074815;28;20482;-51
2022/09/11 03:10:30;;;;;;;7.83;6.27;;;15.70;99.90;;;;;;5074788;28;20822;-49
2022/09/11 03:12:58;;;;;;;7.83;5.13;;;15.70;99.90;;;;;;5074837;28;20457;-48
2022/09/11 03:15:25;;;;;;;7.10;5.53;;;15.60;99.90;;;;;;5074781;28;20475;-45
2022/09/11 03:17:53;;;;;;;10.07;5.70;;;15.60;99.90;;;;;;5074494;28;20434;-51
2022/09/11 03:20:20;;;;;;;7.30;4.97;;;15.60;99.90;;;;;;5074345;28;20489;-49
2022/09/11 03:22:47;;;;;;;11.47;5.37;;;15.60;99.90;;;;;;5074393;28;20450;-47
2022/09/11 03:25:14;;;;;;;10.27;5.70;;;15.60;99.90;;;;;;5074389;28;20916;-50
2022/09/11 03:27:41;;;;;;;8.83;6.43;;;15.50;99.90;;;;;;5074610;28;20765;-51
2022/09/11 03:30:09;;;;;;;7.63;5.83;;;15.50;99.90;;;;;;5074725;28;20442;-49
2022/09/11 03:32:36;;;;;;;6.97;6.27;;;15.50;99.90;;;;;;5074271;28;20962;-48
2022/09/11 03:35:04;;;;;;;8.00;6.40;;;15.50;99.90;;;;;;5074594;28;20923;-50
2022/09/11 03:37:31;;;;;;;9.83;6.47;;;15.50;99.90;;;;;;5074255;28;20947;-50
2022/09/11 03:40:00;;;;;;;9.43;7.07;;;15.50;99.90;;;;;;5074573;28;20725;-49
2022/09/11 03:42:27;;;;;;;11.40;7.00;;;15.50;99.90;;;;;;5074478;28;20565;-52
2022/09/11 03:44:54;;;;;;;13.93;7.37;;;15.60;99.90;;;;;;5074215;28;20903;-46
2022/09/11 03:47:21;;;;;;;10.63;6.07;;;15.60;99.90;;;;;;5074221;28;20482;-53
2022/09/11 03:49:48;;;;;;;9.10;5.13;;;15.60;99.90;;;;;;5074524;28;20446;-56
2022/09/11 03:52:16;;;;;;;9.10;6.37;;;15.60;99.90;;;;;;5074556;28;20434;-50
2022/09/11 03:54:43;;;;;;;8.67;5.90;;;15.60;99.90;;;;;;5075879;28;20481;-50
2022/09/11 03:57:09;;;;;;;8.17;6.63;;;15.50;99.90;;;;;;5078422;28;20453;-48
2022/09/11 03:59:38;;;;;;;9.87;6.70;;;15.50;99.90;;;;;;5078259;28;20488;-49
2022/09/11 04:02:05;;;;;;;8.10;6.87;;;15.50;99.90;;;;;;5078334;28;20485;-53
2022/09/11 04:04:32;;;;;;;10.00;6.53;;;15.50;99.90;;;;;;5078178;28;20478;-52
2022/09/11 04:06:59;;;;;;;11.23;7.23;;;15.40;99.90;;;;;;5077997;28;20868;-54
2022/09/11 04:09:27;;;;;;;9.20;5.97;;;15.40;99.90;;;;;;5077946;28;20449;-53
2022/09/11 04:11:54;;;;;;;12.67;8.57;;;15.30;99.90;;;;;;5078156;28;20547;-45
2022/09/11 04:14:21;;;;;;;8.47;6.50;;;15.30;99.90;;;;;;5078137;28;20553;-52
2022/09/11 04:16:48;;;;;;;10.37;7.20;;;15.30;99.90;;;;;;5078720;28;20976;-46
2022/09/11 04:19:20;;;;;;;11.23;7.37;;;15.40;99.90;;;;;;5078420;28;20924;-46
2022/09/11 04:21:46;;;;;;;9.83;6.53;;;15.30;99.90;;;;;;5078138;28;20791;-51
2022/09/11 04:24:14;;;;;;;7.53;6.60;;;15.30;99.90;;;;;;5077979;28;20453;-49
2022/09/11 04:26:42;;;;;;;12.70;6.93;;;15.30;99.90;;;;;;5077856;28;20466;-48
2022/09/11 04:29:09;;;;;;;8.60;6.70;;;15.30;99.90;;;;;;5077694;28;20569;-48
2022/09/11 04:31:37;;;;;;;12.00;7.70;;;15.30;99.90;;;;;;5078190;28;20431;-52
2022/09/11 04:34:05;;;;;;;10.70;7.00;;;15.20;99.90;;;;;;5077808;28;20446;-49
2022/09/11 04:36:32;;;;;;;10.00;6.50;;;15.20;99.90;;;;;;5077754;28;20498;-50
2022/09/11 04:39:00;;;;;;;13.37;7.57;;;15.20;99.90;;;;;;5077717;28;20466;-47
2022/09/11 04:41:27;;;;;;;12.00;7.20;;;15.30;99.90;;;;;;5077340;28;20454;-49
2022/09/11 04:43:57;;;;;;;10.50;6.43;;;15.20;99.90;;;;;;5077158;28;20473;-51
2022/09/11 04:46:24;;;;;;;10.53;6.57;;;15.20;99.90;;;;;;5077449;28;20442;-48
2022/09/11 04:48:54;;;;;;;11.93;7.30;;;15.20;99.90;;;;;;5077302;28;20478;-43
2022/09/11 04:51:22;;;;;;;13.30;7.47;;;15.20;99.90;;;;;;5077031;28;20497;-46
2022/09/11 04:53:56;;;;;;;12.20;7.27;;;15.20;99.90;;;;;;5078101;28;20450;-48
2022/09/11 04:56:24;;;;;;;14.63;6.70;;;15.30;99.90;;;;;;5077152;28;20431;-50
2022/09/11 04:58:56;;;;;;;16.83;7.93;;;15.30;99.90;;;;;;5077464;28;20755;-46
2022/09/11 05:01:25;;;;;;;11.83;7.77;;;15.30;99.90;;;;;;5077741;28;21008;-48
2022/09/11 05:03:52;;;;;;;12.90;7.63;;;15.40;99.90;;;;;;5077666;28;20451;-45
2022/09/11 05:06:19;;;;;;;16.87;9.10;;;15.40;99.90;;;;;;5076230;28;20489;-51
2022/09/11 05:08:47;;;;;;;19.83;9.23;;;15.40;99.90;;;;;;5077672;28;20489;-50
2022/09/11 05:11:15;;;;;;;19.73;11.73;;;15.40;99.90;;;;;;5076913;28;20477;-52
2022/09/11 05:13:43;;;;;;;20.57;11.10;;;15.40;99.90;;;;;;5077184;28;20442;-47
2022/09/11 05:16:13;;;;;;;17.97;10.87;;;15.40;99.90;;;;;;5076659;28;20453;-48
2022/09/11 05:18:44;;;;;;;20.23;10.57;;;15.50;99.90;;;;;;5076609;28;20465;-48
2022/09/11 05:21:12;;;;;;;20.67;11.97;;;15.50;99.90;;;;;;5076666;28;20458;-47
2022/09/11 05:23:39;;;;;;;20.70;11.60;;;15.50;99.90;;;;;;5076854;28;20466;-48
2022/09/11 05:26:07;;;;;;;19.40;11.47;;;15.60;99.90;;;;;;5076861;28;20580;-49
2022/09/11 05:28:34;;;;;;;17.17;10.03;;;15.60;99.90;;;;;;5076311;28;20986;-48
2022/09/11 05:31:02;;;;;;;16.10;10.00;;;15.70;99.90;;;;;;5076695;28;20446;-46
2022/09/11 05:33:29;;;;;;;19.00;10.20;;;15.70;99.90;;;;;;5076552;28;20500;-51
2022/09/11 05:36:03;;;;;;;14.60;9.53;;;15.70;99.90;;;;;;5076316;28;20446;-49
2022/09/11 05:38:31;;;;;;;12.67;8.67;;;15.70;99.90;;;;;;5076813;28;20517;-52
2022/09/11 05:40:59;;;;;;;17.70;9.67;;;15.80;99.90;;;;;;5076322;28;20529;-51
2022/09/11 05:43:25;;;;;;;20.60;9.90;;;15.80;99.90;;;;;;5076258;28;20462;-50
2022/09/11 05:45:56;;;;;;;17.60;10.00;;;15.80;99.90;;;;;;5076365;28;20473;-46
2022/09/11 05:48:24;;;;;;;15.80;10.00;;;15.80;99.90;;;;;;5076103;28;20473;-49
2022/09/11 05:50:54;;;;;;;20.10;9.07;;;15.80;99.90;;;;;;5076132;28;20484;-48
2022/09/11 05:53:23;;;;;;;18.33;10.10;;;15.90;99.90;;;;;;5077028;28;20525;-53
2022/09/11 05:55:51;;;;;;;19.03;11.70;;;15.90;99.90;;;;;;5076186;28;20477;-48
2022/09/11 05:58:18;;;;;;;18.13;9.00;;;15.90;99.90;;;;;;5076175;28;20422;-42
2022/09/11 06:00:45;;;;;;;14.37;8.40;;;16.00;99.90;;;;;;5076275;28;20469;-49
2022/09/11 06:03:12;;;;;;;16.77;9.90;;;16.00;99.90;;;;;;5076586;28;20469;-46
2022/09/11 06:05:39;;;;;;;16.63;9.90;;;16.10;99.90;;;;;;5076268;28;20450;-47
2022/09/11 06:08:06;;;;;;;16.13;10.07;;;16.20;99.90;;;;;;5076393;28;20489;-49
2022/09/11 06:10:34;;;;;;;15.13;9.63;;;16.20;99.90;;;;;;5075613;28;20465;-49
2022/09/11 06:13:01;;;;;;;18.83;10.20;;;16.20;99.90;;;;;;5075534;28;20473;-51
2022/09/11 06:15:28;;;;;;;14.90;8.57;;;16.20;99.90;;;;;;5075853;28;20528;-50
2022/09/11 06:17:55;;;;;;;17.93;9.63;;;16.20;99.90;;;;;;5075322;28;20462;-49
2022/09/11 06:20:21;;;;;;;16.43;10.73;;;16.30;99.90;;;;;;5075313;28;20462;-51
2022/09/11 06:22:49;;;;;;;19.67;11.13;;;16.30;99.90;;;;;;5076082;28;20437;-51
2022/09/11 06:25:16;;;;;;;16.63;9.10;;;16.40;99.90;;;;;;5075346;28;20450;-48
2022/09/11 06:27:44;;;;;;;17.97;10.20;;;16.40;99.90;;;;;;5075775;28;20459;-50
2022/09/11 06:30:12;;;;;;;18.97;10.20;;;16.50;99.90;;;;;;5075658;28;20561;-46
2022/09/11 06:32:40;;;;;;;18.23;9.87;;;16.60;99.90;;;;;;5075471;28;20454;-50
2022/09/11 06:35:07;;;;;;;16.83;10.10;;;16.70;99.90;;;;;;5075179;28;20557;-51
2022/09/11 06:37:35;;;;;;;22.07;10.70;;;16.70;99.90;;;;;;5075329;28;20438;-50
2022/09/11 06:40:02;;;;;;;15.97;9.67;;;16.80;99.90;;;;;;5075012;28;20512;-44
2022/09/11 06:42:29;;;;;;;16.63;10.20;;;16.90;99.90;;;;;;5075693;28;20883;-57
2022/09/11 06:44:57;;;;;;;17.73;9.73;;;16.90;99.90;;;;;;5075425;28;20450;-49
2022/09/11 06:47:24;;;;;;;16.77;9.47;;;17.00;99.90;;;;;;5075196;28;20446;-48
2022/09/11 06:49:51;;;;;;;16.80;10.07;;;17.00;99.90;;;;;;5075136;28;20486;-44
2022/09/11 06:52:18;;;;;;;14.37;9.90;;;17.00;99.90;;;;;;5074991;28;20466;-50
2022/09/11 06:54:44;;;;;;;16.40;9.20;;;17.00;99.90;;;;;;5074819;28;20438;-44
2022/09/11 06:57:11;;;;;;;16.47;9.80;;;17.00;99.90;;;;;;5074983;28;20492;-47
2022/09/11 06:59:38;;;;;;;23.77;10.10;;;17.00;99.90;;;;;;5075759;28;20440;-49
2022/09/11 07:02:06;;;;;;;15.33;10.70;;;17.00;99.90;;;;;;5074974;28;20442;-51
2022/09/11 07:04:33;;;;;;;20.63;11.23;;;17.00;99.90;;;;;;5075459;28;20446;-48
2022/09/11 07:07:06;;;;;;;14.70;9.70;;;17.00;99.90;;;;;;5073812;28;20473;-47
2022/09/11 07:09:32;;;;;;;20.60;10.90;;;17.10;99.90;;;;;;5074070;28;20495;-46
2022/09/11 07:11:59;;;;;;;15.67;9.53;;;17.10;99.90;;;;;;5074569;28;20533;-46
2022/09/11 07:14:26;;;;;;;18.50;8.90;;;17.10;99.90;;;;;;5074219;28;20481;-45
2022/09/11 07:16:54;;;;;;;16.10;9.47;;;17.20;99.90;;;;;;5074394;28;20482;-47
2022/09/11 07:19:24;;;;;;;15.80;10.00;;;17.20;99.90;;;;;;5074611;28;20549;-47
2022/09/11 07:21:51;;;;;;;19.83;11.63;;;17.20;99.90;;;;;;5074564;28;20484;-45
2022/09/11 07:24:24;;;;;;;15.13;8.80;;;17.20;99.90;;;;;;5074860;28;20446;-45
2022/09/11 07:26:52;;;;;;;13.13;8.70;;;17.20;99.90;;;;;;5074966;28;20898;-46
2022/09/11 07:29:18;;;;;;;14.13;9.93;;;17.20;99.90;;;;;;5075049;28;20865;-46
2022/09/11 07:31:46;;;;;;;16.97;8.90;;;17.30;99.90;;;;;;5074733;28;20953;-48
2022/09/11 07:34:13;;;;;;;14.20;9.17;;;17.30;99.90;;;;;;5074712;28;20552;-46
2022/09/11 07:36:41;;;;;;;13.30;8.23;;;17.40;99.90;;;;;;5075601;28;20994;-46
2022/09/11 07:39:08;;;;;;;15.17;9.10;;;17.40;99.90;;;;;;5074464;28;20470;-48
2022/09/11 07:41:35;;;;;;;14.03;6.93;;;17.50;99.90;;;;;;5074488;28;20466;-42
2022/09/11 07:44:03;;;;;;;13.57;7.77;;;17.50;99.90;;;;;;5074759;28;20453;-46
2022/09/11 07:46:31;;;;;;;17.23;9.03;;;17.60;99.90;;;;;;5074759;28;20472;-47
2022/09/11 07:49:00;;;;;;;17.00;9.20;;;17.80;99.90;;;;;;5074844;28;20520;-45
2022/09/11 07:51:28;;;;;;;14.53;8.07;;;18.00;99.90;;;;;;5093563;28;20783;-48
2022/09/11 07:53:58;;;;;;;14.60;7.67;;;18.20;99.90;;;;;;5074592;28;20478;-46
2022/09/11 07:56:27;;;;;;;10.90;7.60;;;18.40;99.90;;;;;;5076132;28;20463;-45
2022/09/11 07:58:55;;;;;;;10.87;7.20;;;18.50;99.90;;;;;;5076930;28;20984;-46
2022/09/11 08:01:24;;;;;;;10.27;7.50;;;18.70;99.90;;;;;;5076615;28;20497;-46
2022/09/11 08:03:56;;;;;;;9.90;7.07;;;18.90;99.90;;;;;;5075310;28;20473;-45
2022/09/11 08:06:24;;;;;;;13.03;7.67;;;19.00;99.90;;;;;;5075100;28;20871;-44
2022/09/11 08:08:53;;;;;;;12.30;7.80;;;19.10;99.90;;;;;;5074596;28;20970;-46
2022/09/11 08:11:22;;;;;;;9.40;7.47;;;19.00;99.90;;;;;;5075273;28;20525;-48
2022/09/11 08:13:51;;;;;;;11.93;8.00;;;19.00;99.90;;;;;;5075744;28;20446;-51
2022/09/11 08:16:18;;;;;;;11.27;7.37;;;19.00;99.90;;;;;;5075323;28;20514;-46
2022/09/11 08:18:45;;;;;;;15.97;7.73;;;19.10;99.90;;;;;;5075477;28;20476;-45
2022/09/11 08:21:12;;;;;;;12.00;7.70;;;19.10;99.90;;;;;;5075056;28;20817;-48
2022/09/11 08:23:41;;;;;;;11.10;8.43;;;19.20;99.90;;;;;;5075184;28;20453;-47
2022/09/11 08:26:09;;;;;;;14.37;9.23;;;19.20;99.90;;;;;;5075465;28;20848;-48
2022/09/11 08:28:38;;;;;;;13.00;8.57;;;19.30;99.90;;;;;;5074841;28;20489;-49
2022/09/11 08:31:06;;;;;;;12.17;7.53;;;19.40;99.90;;;;;;5075120;28;20515;-51
2022/09/11 08:33:34;;;;;;;10.93;7.10;;;19.40;99.90;;;;;;5074178;28;20747;-46
2022/09/11 08:36:02;;;;;;;9.30;5.57;;;19.50;99.90;;;;;;5075184;28;20958;-47
2022/09/11 08:38:29;;;;;;;11.87;7.80;;;19.50;99.90;;;;;;5074664;28;20466;-46
2022/09/11 08:40:58;;;;;;;10.70;7.30;;;19.50;99.90;;;;;;5076555;28;20450;-44
2022/09/11 08:43:29;;;;;;;12.33;7.70;;;19.40;99.90;;;;;;5079447;28;20942;-47
2022/09/11 08:46:03;;;;;;;12.73;8.17;;;19.40;99.90;;;;;;5082187;28;20477;-47
2022/09/11 08:48:38;;;;;;;10.80;6.33;;;19.30;99.90;;;;;;5078602;28;20508;-45
2022/09/11 08:51:05;;;;;;;9.97;7.57;;;19.30;99.90;;;;;;5081730;28;20441;-56
2022/09/11 08:53:34;;;;;;;13.97;8.37;;;19.20;99.90;;;;;;5078937;28;20726;-44
2022/09/11 08:56:06;;;;;;;10.83;6.80;;;19.00;99.90;;;;;;5077744;28;20426;-46
2022/09/11 08:58:43;;;;;;;10.17;7.37;;;18.90;99.90;;;;;;5077397;28;20521;-46
2022/09/11 09:01:21;;;;;;;10.20;7.23;;;18.80;99.90;;;;;;5077296;28;20438;-45
2022/09/11 09:04:00;;;;;;;9.83;7.27;;;18.80;99.90;;;;;;5077194;28;20431;-47
2022/09/11 09:06:42;;;;;;;9.23;7.03;;;18.80;99.90;;;;;;5079204;28;20480;-46
2022/09/11 09:09:17;;;;;;;13.60;7.63;;;18.90;99.90;;;;;;5098031;28;20459;-46
2022/09/11 09:11:51;;;;;;;10.40;7.13;;;19.00;99.90;;;;;;5098550;28;20521;-45
2022/09/11 09:14:29;;;;;;;14.57;7.50;;;19.20;99.90;;;;;;5098837;28;20434;-50
2022/09/11 09:17:02;;;;;;;10.10;6.80;;;19.30;99.90;;;;;;5099513;28;20430;-45
2022/09/11 09:19:33;;;;;;;8.97;5.83;;;19.40;99.90;;;;;;5098258;28;20433;-43
2022/09/11 09:22:07;;;;;;;9.23;6.97;;;19.40;99.90;;;;;;5099086;28;20831;-42
2022/09/11 09:24:39;;;;;;;10.73;6.90;;;19.50;99.90;;;;;;5099348;28;20490;-42
2022/09/11 09:27:07;;;;;;;9.10;6.70;;;19.70;99.90;;;;;;5098107;28;20427;-45
2022/09/11 09:29:38;;;;;;;8.80;6.67;;;19.90;99.90;;;;;;5097037;28;20478;-46
2022/09/11 09:32:12;;;;;;;8.43;6.27;;;20.10;99.90;;;;;;5096467;28;20469;-44
2022/09/11 09:34:44;;;;;;;9.63;6.77;;;20.20;99.90;;;;;;5096775;28;20432;-46
2022/09/11 09:37:16;;;;;;;6.83;5.00;;;20.20;99.90;;;;;;5096841;28;20431;-47
2022/09/11 09:39:43;;;;;;;10.10;6.80;;;20.30;99.90;;;;;;5096937;28;20415;-47
2022/09/11 09:42:37;;;;;;;12.50;6.47;;;20.40;99.90;;;;;;5096439;28;20534;-50
2022/09/11 09:45:23;;;;;;;11.23;5.60;;;20.60;99.90;;;;;;5057229;28;20469;-44
2022/09/11 09:47:52;;;;;;;11.40;7.43;;;20.70;99.90;;;;;;5090743;28;20469;-50
2022/09/11 09:50:22;;;;;;;13.40;8.10;;;20.50;99.90;;;;;;5096734;28;20504;-36
2022/09/11 09:52:49;;;;;;;8.40;6.80;;;20.30;99.90;;;;;;5066085;28;20449;-49
2022/09/11 09:55:18;;;;;;;8.63;6.27;;;20.00;99.90;;;;;;5055007;28;20451;-48
2022/09/11 09:57:46;;;;;;;11.37;7.33;;;19.80;99.90;;;;;;5056106;28;20478;-51
2022/09/11 10:00:18;;;;;;;8.77;7.33;;;19.70;99.90;;;;;;5057969;28;20534;-47
2022/09/11 10:02:48;;;;;;;10.60;8.27;;;19.60;99.90;;;;;;5059474;28;20977;-47
2022/09/11 10:05:24;;;;;;;12.03;6.70;;;19.60;99.90;;;;;;5064638;28;20505;-45
2022/09/11 10:07:53;;;;;;;9.73;7.00;;;19.90;99.90;;;;;;5065838;28;20497;-45
2022/09/11 10:10:28;;;;;;;12.90;7.40;;;20.00;99.90;;;;;;5059835;28;20478;-46
2022/09/11 10:12:57;;;;;;;10.93;7.10;;;20.10;99.90;;;;;;5063215;28;20466;-49
2022/09/11 10:15:25;;;;;;;7.33;5.73;;;20.20;99.90;;;;;;5061401;28;20480;-47
2022/09/11 10:17:52;;;;;;;10.03;6.23;;;20.20;99.90;;;;;;5067900;28;20497;-47
2022/09/11 10:20:30;;;;;;;9.80;6.40;;;20.10;99.90;;;;;;5066745;28;20470;-46
2022/09/11 10:23:17;;;;;;;9.00;7.00;;;20.00;99.90;;;;;;5059359;28;20438;-48
2022/09/11 10:25:48;;;;;;;11.07;7.30;;;19.80;99.90;;;;;;5060906;28;20481;-47
2022/09/11 10:28:18;;;;;;;9.70;7.70;;;19.70;99.90;;;;;;5061615;28;20493;-47
2022/09/11 10:30:57;;;;;;;11.63;7.30;;;19.50;99.90;;;;;;5068235;28;20486;-45
2022/09/11 10:33:28;;;;;;;14.17;9.07;;;19.30;99.90;;;;;;5059683;28;20497;-45
2022/09/11 10:35:59;;;;;;;13.00;7.90;;;19.20;99.90;;;;;;5059855;28;20959;-45
2022/09/11 10:38:31;;;;;;;11.27;7.67;;;19.10;99.90;;;;;;5056081;28;20432;-49
2022/09/11 10:41:10;;;;;;;14.43;8.40;;;19.20;99.90;;;;;;5056040;28;20469;-45
2022/09/11 10:43:50;;;;;;;10.23;7.27;;;19.20;99.90;;;;;;5056273;28;20442;-49
2022/09/11 10:46:27;;;;;;;12.90;7.80;;;19.80;99.90;;;;;;5055961;28;20423;-45
2022/09/11 10:48:55;;;;;;;9.80;7.30;;;20.60;99.90;;;;;;5063898;28;20459;-47
2022/09/11 10:51:26;;;;;;;9.97;6.13;;;21.30;99.90;;;;;;5076546;28;20547;-47
2022/09/11 10:54:14;;;;;;;9.77;6.00;;;21.70;99.90;;;;;;5074881;28;20438;-45
2022/09/11 10:56:58;;;;;;;6.90;5.63;;;22.10;99.90;;;;;;5074924;28;20454;-48
2022/09/11 10:59:39;;;;;;;8.07;6.40;;;22.60;99.90;;;;;;5075966;28;20470;-44
2022/09/11 11:02:18;;;;;;;7.23;5.40;;;22.90;99.90;;;;;;5076617;28;20524;-45
2022/09/11 11:04:45;;;;;;;9.13;6.60;;;22.90;99.90;;;;;;5076888;28;20420;-42
2022/09/11 11:07:24;;;;;;;9.63;5.80;;;22.70;99.90;;;;;;5104128;28;20462;-45
2022/09/11 11:10:01;;;;;;;7.27;5.80;;;22.40;99.90;;;;;;5101040;28;20470;-48
2022/09/11 11:12:40;;;;;;;7.00;5.10;;;22.00;99.90;;;;;;5102829;28;20453;-43
2022/09/11 11:15:29;;;;;;;5.70;4.77;;;21.70;99.90;;;;;;5116976;28;20417;-47
2022/09/11 11:18:31;;;;;;;8.40;5.90;;;21.40;99.90;;;;;;5117386;28;20473;-46
2022/09/11 11:21:07;;;;;;;9.53;6.33;;;21.00;99.90;;;;;;5097533;28;20457;-45
2022/09/11 11:24:00;;;;;;;7.87;6.03;;;20.80;99.90;;;;;;5117375;28;20446;-43
2022/09/11 11:26:41;;;;;;;5.90;5.17;;;20.60;99.90;;;;;;5116946;28;20453;-43
2022/09/11 11:29:24;;;;;;;7.93;5.23;;;20.50;99.90;;;;;;5116117;28;20426;-49
2022/09/11 11:32:09;;;;;;;7.07;5.40;;;20.50;99.90;;;;;;5116567;28;20410;-41
2022/09/11 11:35:00;;;;;;;8.27;5.47;;;20.50;99.90;;;;;;5116741;28;20398;-45
2022/09/11 11:37:32;;;;;;;7.27;5.33;;;20.50;99.90;;;;;;5116936;28;20422;-43
2022/09/11 11:40:05;;;;;;;6.70;5.10;;;20.60;99.90;;;;;;5116924;28;20410;-46
2022/09/11 11:42:37;;;;;;;5.17;4.60;;;20.80;99.90;;;;;;5116741;28;20629;-43
2022/09/11 11:45:10;;;;;;;5.37;4.80;;;21.00;99.90;;;;;;5116810;28;20416;-44
2022/09/11 11:47:41;;;;;;;10.93;5.10;;;21.20;99.90;;;;;;5116152;28;20582;-45
2022/09/11 11:50:24;;;;;;;8.37;6.50;;;21.30;99.90;;;;;;5114642;28;20462;-48
2022/09/11 11:53:01;;;;;;;15.13;5.27;;;21.30;99.90;;;;;;5114510;28;20426;-49
2022/09/11 11:55:39;;;;;;;6.43;4.77;;;21.40;99.90;;;;;;5113735;28;20436;-45
2022/09/11 11:58:16;;;;;;;5.37;4.60;;;21.60;99.90;;;;;;5105897;28;20466;-46
2022/09/11 12:00:49;;;;;;;8.97;4.40;;;21.70;99.90;;;;;;5113627;28;20485;-42
2022/09/11 12:03:22;;;;;;;8.03;4.83;;;21.70;99.90;;;;;;5073267;28;20495;-46
2022/09/11 12:05:49;;;;;;;5.17;4.40;;;21.60;99.90;;;;;;5073624;28;20414;-47
2022/09/11 12:08:17;;;;;;;5.10;4.50;;;21.60;99.90;;;;;;5073043;28;20459;-44
2022/09/11 12:10:55;;;;;;;6.50;4.63;;;21.50;99.90;;;;;;5073678;28;20473;-44
2022/09/11 12:13:27;;;;;;;5.43;4.40;;;21.60;99.90;;;;;;5073984;28;20528;-47
2022/09/11 12:16:26;;;;;;;5.00;4.00;;;21.70;99.90;;;;;;5090964;28;20461;-48
2022/09/11 12:19:13;;;;;;;6.27;3.70;;;22.00;99.90;;;;;;5053706;28;20425;-44
2022/09/11 12:21:42;;;;;;;4.97;3.87;;;22.20;99.90;;;;;;5096618;28;20450;-46
2022/09/11 12:24:19;;;;;;;5.67;3.90;;;22.20;99.90;;;;;;5096725;28;20438;-46
2022/09/11 12:26:47;;;;;;;5.23;4.10;;;22.20;99.90;;;;;;5105377;28;20433;-45
2022/09/11 12:29:51;;;;;;;7.60;4.17;;;22.20;99.90;;;;;;5116038;28;20456;-39
2022/09/11 12:32:41;;;;;;;7.13;4.40;;;22.10;99.90;;;;;;5093143;28;20461;-45
2022/09/11 12:35:22;;;;;;;5.30;3.73;;;21.90;99.90;;;;;;5097523;28;20466;-43
2022/09/11 12:37:56;;;;;;;4.53;3.57;;;21.80;99.90;;;;;;5100390;28;20494;-49
2022/09/11 12:40:32;;;;;;;9.33;5.30;;;21.70;99.90;;;;;;5087498;28;20415;-43
2022/09/11 12:43:26;;;;;;;7.27;4.80;;;21.50;99.90;;;;;;5078959;28;20468;-51
2022/09/11 12:45:53;;;;;;;4.97;4.30;;;21.40;99.90;;;;;;5079183;28;20419;-47
2022/09/11 12:48:22;;;;;;;6.23;4.20;;;21.30;99.90;;;;;;5079303;28;20470;-50
2022/09/11 12:50:51;;;;;;;5.90;4.57;;;21.20;99.90;;;;;;5079417;28;20467;-45
2022/09/11 12:53:26;;;;;;;4.60;4.07;;;21.10;99.90;;;;;;5079152;28;20514;-45
2022/09/11 12:55:57;;;;;;;5.73;5.17;;;21.10;99.90;;;;;;5079245;28;20478;-49
2022/09/11 12:58:30;;;;;;;5.83;3.47;;;21.00;99.90;;;;;;5078810;28;20424;-50
2022/09/11 13:01:21;;;;;;;7.37;4.17;;;20.90;99.90;;;;;;5078942;28;20419;-49